Time;durP1;ratioP1;P1;durP2;ratioP2;P2;SDS_P1;SDS_P2;PMS_P1;PMS_P2;Temp;Humidity;BMP_temperature;BMP_pressure;BME280_temperature;BME280_humidity;BME280_pressure;Samples;Min_cycle;Max_cycle;Signal;HPM_P1;HPM_P2
2023/05/01 00:01:04;;;;;;;0.28;0.28;;;22.10;53.80;;;;;;6126736;29;20048;-55
2023/05/01 00:04:07;;;;;;;0.30;0.30;;;22.30;53.80;;;;;;6127034;29;20051;-54
2023/05/01 00:07:08;;;;;;;0.35;0.35;;;22.10;53.80;;;;;;6127173;29;20075;-53
2023/05/01 00:10:10;;;;;;;;;;;22.10;53.90;;;;;;6126967;29;20542;-54
2023/05/01 00:13:13;;;;;;;0.32;0.30;;;22.00;54.00;;;;;;6126876;29;19923;-54
2023/05/01 00:16:15;;;;;;;;;;;22.00;53.80;;;;;;6126978;29;20051;-54
2023/05/01 00:19:17;;;;;;;0.40;0.30;;;21.80;53.90;;;;;;6126866;29;20414;-55
2023/05/01 00:22:19;;;;;;;0.55;0.20;;;22.00;53.80;;;;;;6126813;29;20102;-54
2023/05/01 00:25:22;;;;;;;;;;;21.90;53.80;;;;;;6126859;29;20043;-54
2023/05/01 00:28:23;;;;;;;0.30;0.30;;;21.90;54.20;;;;;;6126379;29;19974;-53
2023/05/01 00:31:24;;;;;;;;;;;22.40;54.20;;;;;;6126987;29;20054;-52
2023/05/01 00:34:30;;;;;;;0.40;0.30;;;21.90;54.10;;;;;;6126336;29;19922;-54
2023/05/01 00:37:31;;;;;;;0.40;0.28;;;22.10;54.00;;;;;;6126301;29;20039;-52
2023/05/01 00:40:41;;;;;;;0.20;0.20;;;21.90;54.50;;;;;;6126529;29;20415;-54
2023/05/01 00:43:42;;;;;;;0.25;0.25;;;22.10;53.90;;;;;;6126105;29;20408;-54
2023/05/01 00:46:44;;;;;;;0.30;0.30;;;22.10;54.00;;;;;;6126840;29;20059;-52
2023/05/01 00:49:47;;;;;;;0.30;0.30;;;21.90;54.00;;;;;;6126068;29;20047;-54
2023/05/01 00:52:48;;;;;;;0.32;0.20;;;21.90;53.80;;;;;;6125991;29;20507;-54
2023/05/01 00:55:50;;;;;;;0.20;0.20;;;21.90;54.10;;;;;;6126031;29;20071;-53
2023/05/01 00:58:53;;;;;;;0.43;0.25;;;21.90;54.00;;;;;;6126249;29;20076;-51
2023/05/01 01:01:55;;;;;;;0.30;0.30;;;21.80;54.00;;;;;;6129932;29;20043;-52
2023/05/01 01:04:58;;;;;;;0.30;0.30;;;22.00;54.10;;;;;;6128794;29;20060;-54
2023/05/01 01:08:09;;;;;;;0.20;0.20;;;21.90;54.20;;;;;;6129832;29;20412;-53
2023/05/01 01:11:18;;;;;;;0.22;0.20;;;21.90;54.00;;;;;;6130047;29;20047;-53
2023/05/01 01:14:27;;;;;;;0.20;0.20;;;22.00;54.20;;;;;;6129683;29;20127;-53
2023/05/01 01:17:34;;;;;;;0.22;0.22;;;21.90;54.10;;;;;;6130536;29;20493;-52
2023/05/01 01:20:44;;;;;;;0.20;0.20;;;21.80;54.00;;;;;;6128327;29;20048;-54
2023/05/01 01:24:13;;;;;;;0.22;0.20;;;21.90;54.20;;;;;;6129595;29;20051;-53
2023/05/01 01:27:32;;;;;;;0.20;0.20;;;22.10;54.20;;;;;;6128582;29;20111;-53
2023/05/01 01:30:55;;;;;;;0.20;0.20;;;21.90;54.20;;;;;;6129728;29;20059;-53
2023/05/01 01:34:01;;;;;;;0.22;0.20;;;21.80;54.20;;;;;;6130158;29;20119;-51
2023/05/01 01:37:11;;;;;;;0.20;0.20;;;21.80;54.10;;;;;;6128368;29;20083;-55
2023/05/01 01:40:17;;;;;;;0.30;0.30;;;21.80;54.20;;;;;;6128211;29;20130;-54
2023/05/01 01:43:21;;;;;;;0.50;0.20;;;21.90;54.30;;;;;;6129656;29;20059;-54
2023/05/01 01:46:24;;;;;;;0.30;0.30;;;22.10;54.50;;;;;;6129150;29;20044;-54
2023/05/01 01:49:30;;;;;;;0.28;0.20;;;21.90;54.40;;;;;;6129307;29;20126;-54
2023/05/01 01:52:34;;;;;;;0.20;0.20;;;22.10;52.10;;;;;;6129187;29;20424;-54
2023/05/01 01:55:39;;;;;;;0.20;0.20;;;21.80;54.40;;;;;;6128993;29;20102;-54
2023/05/01 01:58:43;;;;;;;0.20;0.20;;;21.80;54.40;;;;;;6129205;29;20047;-53
2023/05/01 02:01:49;;;;;;;0.20;0.20;;;21.90;54.60;;;;;;6129113;29;20047;-53
2023/05/01 02:04:52;;;;;;;0.10;0.10;;;21.80;54.60;;;;;;6128839;29;20134;-52
2023/05/01 02:07:55;;;;;;;0.20;0.10;;;21.80;54.60;;;;;;6129125;29;20498;-52
2023/05/01 02:11:01;;;;;;;0.10;0.10;;;21.70;54.70;;;;;;6126780;29;20060;-53
2023/05/01 02:14:05;;;;;;;0.20;0.20;;;21.80;54.70;;;;;;6128657;29;20122;-52
2023/05/01 02:17:09;;;;;;;0.30;0.30;;;21.60;54.60;;;;;;6128958;29;20048;-52
2023/05/01 02:20:15;;;;;;;0.17;0.17;;;21.70;54.70;;;;;;6111630;29;20527;-54
2023/05/01 02:23:19;;;;;;;0.20;0.20;;;21.80;54.70;;;;;;6128535;29;20079;-54
2023/05/01 02:26:25;;;;;;;0.20;0.20;;;21.90;54.90;;;;;;6129037;29;20044;-53
2023/05/01 02:29:28;;;;;;;0.43;0.28;;;21.70;54.70;;;;;;6128407;29;20131;-52
2023/05/01 02:32:30;;;;;;;0.20;0.20;;;21.80;55.00;;;;;;6128166;29;20047;-53
2023/05/01 02:35:38;;;;;;;0.10;0.10;;;21.80;55.00;;;;;;6128680;29;20048;-52
2023/05/01 02:38:40;;;;;;;0.32;0.20;;;21.70;54.90;;;;;;6128405;29;20044;-54
2023/05/01 02:41:44;;;;;;;0.20;0.20;;;21.70;54.90;;;;;;6128172;29;20477;-54
2023/05/01 02:44:51;;;;;;;0.35;0.28;;;21.70;54.90;;;;;;6126918;29;20051;-54
2023/05/01 02:47:58;;;;;;;0.20;0.20;;;21.80;55.00;;;;;;6126910;29;20043;-52
2023/05/01 02:51:02;;;;;;;0.22;0.22;;;21.70;55.00;;;;;;6127251;29;20044;-51
2023/05/01 02:54:04;;;;;;;0.10;0.10;;;21.80;55.10;;;;;;6128555;29;20449;-52
2023/05/01 02:57:06;;;;;;;0.15;0.15;;;21.70;55.20;;;;;;6128146;29;20044;-53
2023/05/01 03:00:12;;;;;;;;;;;21.80;55.40;;;;;;6128297;29;20079;-53
2023/05/01 03:03:14;;;;;;;0.20;0.20;;;21.70;55.60;;;;;;6128461;29;19930;-53
2023/05/01 03:06:18;;;;;;;0.20;0.20;;;22.00;55.40;;;;;;6126609;29;20415;-53
2023/05/01 03:09:20;;;;;;;0.13;0.13;;;21.80;55.40;;;;;;6128086;29;20528;-52
2023/05/01 03:12:22;;;;;;;0.20;0.20;;;21.80;55.60;;;;;;6127623;29;20456;-54
2023/05/01 03:15:25;;;;;;;;;;;21.60;55.50;;;;;;6128240;29;20047;-53
2023/05/01 03:18:27;;;;;;;0.25;0.20;;;21.70;55.80;;;;;;6127724;29;19929;-54
2023/05/01 03:21:31;;;;;;;0.15;0.15;;;21.60;55.50;;;;;;6127511;29;20071;-49
2023/05/01 03:24:33;;;;;;;0.20;0.20;;;21.70;55.50;;;;;;6126159;29;20044;-54
2023/05/01 03:27:34;;;;;;;0.30;0.30;;;21.70;55.60;;;;;;6127390;29;20052;-51
2023/05/01 03:30:36;;;;;;;0.20;0.20;;;21.70;55.70;;;;;;6127289;29;20047;-53
2023/05/01 03:33:38;;;;;;;0.20;0.20;;;21.50;55.60;;;;;;6127212;29;20075;-52
2023/05/01 03:36:41;;;;;;;0.20;0.20;;;21.60;55.70;;;;;;6127854;29;20047;-53
2023/05/01 03:39:43;;;;;;;0.30;0.30;;;21.40;55.50;;;;;;6127991;29;20047;-53
2023/05/01 03:43:06;;;;;;;0.30;0.30;;;21.80;55.90;;;;;;6126900;29;20114;-52
2023/05/01 03:46:08;;;;;;;0.20;0.20;;;21.70;55.10;;;;;;6126926;29;20059;-54
2023/05/01 03:49:10;;;;;;;0.30;0.30;;;21.60;55.80;;;;;;6126992;29;20571;-51
2023/05/01 03:52:19;;;;;;;0.30;0.30;;;21.60;55.70;;;;;;6127079;29;20499;-53
2023/05/01 03:55:21;;;;;;;0.20;0.20;;;21.70;55.80;;;;;;6126896;29;20048;-54
2023/05/01 03:58:27;;;;;;;0.30;0.30;;;21.60;55.70;;;;;;6127141;29;20039;-55
2023/05/01 04:01:29;;;;;;;0.20;0.20;;;21.90;56.00;;;;;;6126824;29;20054;-52
2023/05/01 04:04:32;;;;;;;0.30;0.30;;;21.50;55.80;;;;;;6126742;29;20050;-53
2023/05/01 04:07:35;;;;;;;0.32;0.30;;;21.60;55.90;;;;;;6127029;29;20055;-52
2023/05/01 04:10:37;;;;;;;0.38;0.28;;;21.60;55.30;;;;;;6126687;29;20051;-55
2023/05/01 04:13:39;;;;;;;0.30;0.30;;;21.60;55.80;;;;;;6126660;29;20071;-51
2023/05/01 04:16:41;;;;;;;0.43;0.20;;;21.70;55.80;;;;;;6126904;29;20098;-54
2023/05/01 04:19:43;;;;;;;0.20;0.20;;;21.70;55.80;;;;;;6126606;29;20448;-54
2023/05/01 04:22:45;;;;;;;0.50;0.40;;;21.60;55.70;;;;;;6126528;29;20420;-54
2023/05/01 04:25:46;;;;;;;0.30;0.30;;;21.70;55.70;;;;;;6126841;29;20102;-53
2023/05/01 04:28:51;;;;;;;0.30;0.30;;;21.60;55.60;;;;;;6126522;29;20043;-54
2023/05/01 04:31:56;;;;;;;0.20;0.20;;;21.70;55.70;;;;;;6126368;29;20083;-54
2023/05/01 04:34:58;;;;;;;0.40;0.30;;;21.60;55.60;;;;;;6127831;29;20047;-54
2023/05/01 04:38:01;;;;;;;0.38;0.20;;;21.60;55.60;;;;;;6130631;29;20067;-52
2023/05/01 04:41:06;;;;;;;0.30;0.30;;;21.60;55.50;;;;;;6130489;29;20130;-55
2023/05/01 04:44:07;;;;;;;;;;;21.60;55.50;;;;;;6130739;29;20519;-52
2023/05/01 04:47:11;;;;;;;0.30;0.30;;;21.60;55.80;;;;;;6130563;29;19927;-54
2023/05/01 04:50:13;;;;;;;0.40;0.35;;;21.50;55.50;;;;;;6130268;29;20048;-53
2023/05/01 04:53:18;;;;;;;;;;;21.70;55.50;;;;;;6130546;29;20044;-53
2023/05/01 04:56:20;;;;;;;0.30;0.30;;;21.50;55.50;;;;;;6130688;29;19930;-54
2023/05/01 04:59:24;;;;;;;0.30;0.30;;;21.70;55.50;;;;;;6130102;29;20051;-53
2023/05/01 05:02:26;;;;;;;0.38;0.30;;;21.60;55.60;;;;;;6130005;29;20099;-54
2023/05/01 05:05:28;;;;;;;0.30;0.30;;;21.50;55.50;;;;;;6130430;29;20390;-54
2023/05/01 05:08:30;;;;;;;;;;;21.50;55.50;;;;;;6130460;29;20051;-52
2023/05/01 05:11:42;;;;;;;0.40;0.40;;;21.60;55.90;;;;;;6129744;29;19929;-54
2023/05/01 05:14:48;;;;;;;0.30;0.30;;;21.60;55.70;;;;;;6130073;29;20055;-54
2023/05/01 05:17:52;;;;;;;0.40;0.40;;;21.60;55.60;;;;;;6129811;29;20083;-54
2023/05/01 05:20:56;;;;;;;0.40;0.32;;;21.60;55.60;;;;;;6129972;29;20183;-52
2023/05/01 05:23:58;;;;;;;0.50;0.50;;;21.60;55.60;;;;;;6129970;29;20499;-53
2023/05/01 05:27:02;;;;;;;0.60;0.40;;;21.50;55.40;;;;;;6129657;29;20564;-51
2023/05/01 05:30:07;;;;;;;0.40;0.40;;;21.40;55.20;;;;;;6129313;29;20156;-54
2023/05/01 05:33:10;;;;;;;0.40;0.40;;;21.60;55.30;;;;;;6129819;29;20130;-54
2023/05/01 05:36:11;;;;;;;0.50;0.40;;;21.60;55.40;;;;;;6129508;29;20122;-52
2023/05/01 05:39:16;;;;;;;0.60;0.50;;;21.50;55.20;;;;;;6129415;29;20411;-52
2023/05/01 05:42:18;;;;;;;0.52;0.40;;;21.60;55.00;;;;;;6129705;29;20132;-54
2023/05/01 05:45:20;;;;;;;0.35;0.28;;;21.50;55.10;;;;;;6129146;29;20050;-54
2023/05/01 05:48:22;;;;;;;0.43;0.38;;;21.60;55.10;;;;;;6128297;29;20050;-54
2023/05/01 05:51:23;;;;;;;;;;;21.50;54.90;;;;;;6129902;29;20052;-54
2023/05/01 05:54:27;;;;;;;0.30;0.30;;;21.50;55.20;;;;;;6129280;29;19945;-53
2023/05/01 05:57:29;;;;;;;0.40;0.40;;;21.60;55.00;;;;;;6129105;29;20075;-54
2023/05/01 06:00:31;;;;;;;0.40;0.40;;;21.50;54.90;;;;;;6129043;29;20428;-53
2023/05/01 06:03:36;;;;;;;0.50;0.30;;;21.40;54.80;;;;;;6128964;29;20123;-54
2023/05/01 06:06:38;;;;;;;0.60;0.40;;;21.50;54.60;;;;;;6129392;29;20048;-53
2023/05/01 06:09:41;;;;;;;0.40;0.30;;;21.50;54.80;;;;;;6128855;29;20051;-53
2023/05/01 06:12:46;;;;;;;0.35;0.30;;;21.50;54.70;;;;;;6128747;29;20044;-52
2023/05/01 06:16:00;;;;;;;0.40;0.40;;;21.50;54.60;;;;;;6129030;29;20070;-53
2023/05/01 06:19:04;;;;;;;0.40;0.40;;;21.40;54.60;;;;;;6128772;29;20533;-55
2023/05/01 06:22:06;;;;;;;0.60;0.35;;;21.60;54.60;;;;;;6128634;29;20135;-52
2023/05/01 06:25:14;;;;;;;0.40;0.40;;;21.50;54.60;;;;;;6128947;29;20123;-53
2023/05/01 06:28:16;;;;;;;0.50;0.20;;;21.40;54.50;;;;;;6128919;29;20071;-52
2023/05/01 06:31:17;;;;;;;0.30;0.30;;;21.50;54.60;;;;;;6128744;29;20054;-51
2023/05/01 06:34:24;;;;;;;0.40;0.40;;;21.40;54.60;;;;;;6128028;29;20047;-52
2023/05/01 06:37:28;;;;;;;0.43;0.32;;;21.60;54.60;;;;;;6128662;29;20055;-52
2023/05/01 06:40:33;;;;;;;0.40;0.40;;;21.50;54.60;;;;;;6128310;29;20106;-52
2023/05/01 06:43:34;;;;;;;0.45;0.40;;;21.40;54.50;;;;;;6128107;29;20048;-54
2023/05/01 06:46:36;;;;;;;;;;;21.50;54.60;;;;;;6128757;29;20572;-52
2023/05/01 06:49:37;;;;;;;0.60;0.40;;;21.50;54.50;;;;;;6128118;29;19931;-52
2023/05/01 06:52:41;;;;;;;0.85;0.50;;;21.80;54.60;;;;;;6127949;29;20054;-54
2023/05/01 06:55:44;;;;;;;0.50;0.30;;;21.40;53.90;;;;;;6127557;29;20048;-53
2023/05/01 06:58:46;;;;;;;0.30;0.30;;;21.70;54.40;;;;;;6127527;29;20055;-54
2023/05/01 07:01:47;;;;;;;0.63;0.35;;;21.50;54.20;;;;;;6127858;29;20059;-54
2023/05/01 07:04:49;;;;;;;;;;;21.50;54.20;;;;;;6128504;29;20050;-52
2023/05/01 07:07:50;;;;;;;0.70;0.38;;;21.50;54.20;;;;;;6127955;29;19972;-54
2023/05/01 07:11:03;;;;;;;0.40;0.32;;;21.30;54.10;;;;;;6127632;29;20135;-54
2023/05/01 07:14:04;;;;;;;1.05;0.57;;;21.40;53.90;;;;;;6128128;29;20051;-53
2023/05/01 07:17:07;;;;;;;;;;;21.50;54.00;;;;;;6128013;29;20043;-53
2023/05/01 07:20:10;;;;;;;0.45;0.30;;;21.30;54.00;;;;;;6126145;29;19923;-54
2023/05/01 07:23:14;;;;;;;0.73;0.40;;;21.50;53.80;;;;;;6127830;29;20040;-53
2023/05/01 07:26:16;;;;;;;0.25;0.20;;;22.00;51.50;;;;;;6126304;29;20102;-54
2023/05/01 07:29:18;;;;;;;0.63;0.43;;;21.50;53.70;;;;;;6128072;29;20477;-53
2023/05/01 07:32:21;;;;;;;0.30;0.30;;;21.60;53.70;;;;;;6127629;29;20492;-52
2023/05/01 07:35:23;;;;;;;0.40;0.35;;;21.50;53.60;;;;;;6127569;29;20043;-54
2023/05/01 07:38:24;;;;;;;;;;;21.40;53.00;;;;;;6128340;29;20075;-51
2023/05/01 07:41:26;;;;;;;;;;;22.10;54.10;;;;;;6127978;29;19926;-54
2023/05/01 07:44:27;;;;;;;;;;;21.80;54.00;;;;;;6127826;29;19922;-53
2023/05/01 07:47:29;;;;;;;0.32;0.30;;;22.30;54.30;;;;;;6127752;29;19922;-51
2023/05/01 07:50:31;;;;;;;0.95;0.40;;;21.60;53.40;;;;;;6127282;29;20040;-53
2023/05/01 07:53:39;;;;;;;0.20;0.20;;;21.90;53.60;;;;;;6127066;29;20555;-54
2023/05/01 07:56:44;;;;;;;0.45;0.20;;;21.60;53.30;;;;;;6126952;29;20123;-52
2023/05/01 07:59:46;;;;;;;0.25;0.25;;;21.60;53.30;;;;;;6126976;29;20054;-55
2023/05/01 08:02:50;;;;;;;0.75;0.40;;;21.50;53.10;;;;;;6126420;29;20067;-53
2023/05/01 08:05:55;;;;;;;0.40;0.40;;;21.60;53.10;;;;;;6127465;29;20070;-52
2023/05/01 08:08:56;;;;;;;0.30;0.30;;;21.70;53.00;;;;;;6125889;29;20509;-54
2023/05/01 08:11:59;;;;;;;;;;;21.50;53.00;;;;;;6127041;29;20055;-54
2023/05/01 08:15:00;;;;;;;1.00;0.40;;;21.60;53.20;;;;;;6126671;29;19934;-54
2023/05/01 08:18:02;;;;;;;0.77;0.30;;;21.80;53.00;;;;;;6126443;29;20043;-54
2023/05/01 08:21:04;;;;;;;0.52;0.40;;;21.50;52.20;;;;;;6126794;29;20051;-53
2023/05/01 08:24:08;;;;;;;0.60;0.30;;;21.60;52.60;;;;;;6126587;29;20075;-53
2023/05/01 08:27:10;;;;;;;0.65;0.40;;;21.70;52.50;;;;;;6126276;29;20044;-53
2023/05/01 08:30:14;;;;;;;0.65;0.50;;;21.70;52.50;;;;;;6126879;29;20124;-53
2023/05/01 08:33:16;;;;;;;0.32;0.32;;;21.60;52.10;;;;;;6126515;29;20436;-52
2023/05/01 08:36:18;;;;;;;0.30;0.30;;;21.60;52.20;;;;;;6126289;29;20047;-53
2023/05/01 08:39:22;;;;;;;0.70;0.30;;;21.50;52.00;;;;;;6126554;29;20039;-55
2023/05/01 08:42:24;;;;;;;;;;;21.70;52.10;;;;;;6126855;29;20447;-52
2023/05/01 08:45:29;;;;;;;0.30;0.28;;;21.70;52.40;;;;;;6126847;29;19927;-53
2023/05/01 08:48:34;;;;;;;0.35;0.28;;;21.50;51.70;;;;;;6125070;29;20062;-53
2023/05/01 08:51:37;;;;;;;0.38;0.30;;;21.70;51.50;;;;;;6124862;29;20075;-50
2023/05/01 08:54:41;;;;;;;0.20;0.20;;;21.90;51.50;;;;;;6126041;29;20054;-54
2023/05/01 08:57:45;;;;;;;0.20;0.20;;;21.70;51.20;;;;;;6126334;29;20349;-51
2023/05/01 09:00:47;;;;;;;0.30;0.30;;;21.70;51.00;;;;;;6125275;29;20189;-55
2023/05/01 09:03:51;;;;;;;0.40;0.40;;;21.70;51.00;;;;;;6125952;29;20520;-54
2023/05/01 09:06:55;;;;;;;0.25;0.25;;;21.80;50.90;;;;;;6125933;29;20403;-52
2023/05/01 09:09:59;;;;;;;0.47;0.30;;;21.90;51.00;;;;;;6125452;29;20052;-53
2023/05/01 09:13:05;;;;;;;0.38;0.20;;;21.90;51.00;;;;;;6125838;29;20055;-54
2023/05/01 09:16:07;;;;;;;0.45;0.30;;;22.20;50.80;;;;;;6126128;29;20048;-53
2023/05/01 09:19:13;;;;;;;0.43;0.35;;;21.80;50.70;;;;;;6125753;29;20040;-55
2023/05/01 09:22:15;;;;;;;0.70;0.30;;;21.80;50.40;;;;;;6128595;29;20059;-52
2023/05/01 09:25:18;;;;;;;0.30;0.30;;;21.90;50.40;;;;;;6130085;29;20047;-53
2023/05/01 09:28:40;;;;;;;0.52;0.22;;;21.60;49.60;;;;;;6129791;29;20047;-55
2023/05/01 09:31:41;;;;;;;0.20;0.20;;;21.80;50.10;;;;;;6129570;29;20067;-55
2023/05/01 09:34:44;;;;;;;0.45;0.30;;;21.80;50.20;;;;;;6130172;29;20040;-53
2023/05/01 09:37:49;;;;;;;0.63;0.45;;;21.80;50.00;;;;;;6129967;29;20051;-53
2023/05/01 09:40:56;;;;;;;0.30;0.20;;;21.90;49.90;;;;;;6129030;29;20127;-53
2023/05/01 09:44:00;;;;;;;0.45;0.30;;;21.80;49.60;;;;;;6129277;29;20063;-54
2023/05/01 09:47:02;;;;;;;0.60;0.30;;;21.80;50.00;;;;;;6129684;29;20496;-54
2023/05/01 09:50:04;;;;;;;0.55;0.30;;;22.00;49.70;;;;;;6129340;29;20465;-52
2023/05/01 09:53:06;;;;;;;0.47;0.47;;;21.80;49.30;;;;;;6129136;29;20075;-53
2023/05/01 09:56:08;;;;;;;0.38;0.38;;;21.80;49.20;;;;;;6130320;29;20416;-54
2023/05/01 09:59:16;;;;;;;;;;;21.90;49.30;;;;;;6129386;29;20040;-55
2023/05/01 10:02:28;;;;;;;0.32;0.20;;;22.20;49.40;;;;;;6127858;29;19923;-52
2023/05/01 10:05:42;;;;;;;0.82;0.30;;;22.30;49.20;;;;;;6128246;29;20496;-54
2023/05/01 10:08:45;;;;;;;0.30;0.30;;;21.90;48.90;;;;;;6128997;29;20111;-53
2023/05/01 10:11:48;;;;;;;0.32;0.20;;;21.90;48.70;;;;;;6129617;29;20066;-50
2023/05/01 10:14:54;;;;;;;0.43;0.30;;;22.00;48.70;;;;;;6129192;29;20625;-54
2023/05/01 10:17:56;;;;;;;0.50;0.30;;;21.90;48.50;;;;;;6127307;29;20050;-54
2023/05/01 10:20:57;;;;;;;0.38;0.38;;;21.90;48.60;;;;;;6129339;29;20084;-53
2023/05/01 10:24:01;;;;;;;0.38;0.20;;;21.90;48.50;;;;;;6128847;29;20473;-54
2023/05/01 10:27:05;;;;;;;0.47;0.35;;;21.80;48.30;;;;;;6128751;29;20091;-53
2023/05/01 10:30:08;;;;;;;0.40;0.20;;;21.90;48.10;;;;;;6128542;29;20575;-54
2023/05/01 10:33:12;;;;;;;0.10;0.10;;;21.90;48.10;;;;;;6127612;29;20055;-54
2023/05/01 10:36:19;;;;;;;0.75;0.40;;;22.00;47.90;;;;;;6128601;29;20412;-54
2023/05/01 10:39:36;;;;;;;0.40;0.30;;;22.00;48.00;;;;;;6129147;29;20375;-53
2023/05/01 10:43:01;;;;;;;0.28;0.20;;;22.00;47.90;;;;;;6127107;29;20377;-55
2023/05/01 10:46:26;;;;;;;0.30;0.20;;;22.10;47.90;;;;;;6128219;29;20044;-54
2023/05/01 10:49:54;;;;;;;0.38;0.30;;;22.10;47.70;;;;;;6127174;29;20075;-52
2023/05/01 10:53:18;;;;;;;0.30;0.30;;;22.00;47.50;;;;;;6126958;29;20087;-53
2023/05/01 10:56:42;;;;;;;0.68;0.30;;;22.10;47.50;;;;;;6128022;29;20051;-53
2023/05/01 11:00:13;;;;;;;0.25;0.20;;;22.10;47.60;;;;;;6127041;29;20106;-54
2023/05/01 11:03:40;;;;;;;0.47;0.20;;;22.00;47.60;;;;;;6115594;29;20396;-54
2023/05/01 11:07:14;;;;;;;0.40;0.30;;;22.00;47.70;;;;;;6126673;29;20051;-53
2023/05/01 11:10:31;;;;;;;0.47;0.40;;;22.10;47.80;;;;;;6127030;29;20488;-54
2023/05/01 11:14:00;;;;;;;0.40;0.20;;;22.10;47.90;;;;;;6127198;29;20528;-53
2023/05/01 11:17:01;;;;;;;0.25;0.25;;;22.00;47.70;;;;;;6126711;29;20500;-52
2023/05/01 11:20:03;;;;;;;;;;;22.00;47.90;;;;;;6128220;29;20043;-55
2023/05/01 11:23:06;;;;;;;0.60;0.35;;;22.00;48.10;;;;;;6127456;29;19927;-50
2023/05/01 11:26:08;;;;;;;0.47;0.30;;;22.10;47.90;;;;;;6127752;29;20039;-53
2023/05/01 11:29:10;;;;;;;;;;;22.40;48.10;;;;;;6127806;29;20453;-52
2023/05/01 11:32:17;;;;;;;0.35;0.35;;;22.60;48.40;;;;;;6127235;29;19949;-53
2023/05/01 11:35:21;;;;;;;0.20;0.20;;;22.10;47.80;;;;;;6127121;29;20385;-53
2023/05/01 11:38:23;;;;;;;0.20;0.20;;;22.10;47.70;;;;;;6127241;29;20488;-54
2023/05/01 11:41:26;;;;;;;0.40;0.10;;;22.10;47.70;;;;;;6127186;29;20054;-54
2023/05/01 11:44:30;;;;;;;0.20;0.20;;;22.20;47.50;;;;;;6125973;29;20074;-53
2023/05/01 11:47:31;;;;;;;0.50;0.20;;;22.20;47.50;;;;;;6127172;29;20048;-51
2023/05/01 11:50:35;;;;;;;0.20;0.20;;;22.10;47.50;;;;;;6127343;29;20408;-53
2023/05/01 11:53:37;;;;;;;0.47;0.30;;;22.10;47.20;;;;;;6127198;29;20035;-54
2023/05/01 11:56:39;;;;;;;0.50;0.30;;;22.20;47.20;;;;;;6127005;29;20071;-53
2023/05/01 11:59:46;;;;;;;0.47;0.20;;;22.20;46.80;;;;;;6126658;29;20539;-54
2023/05/01 12:02:56;;;;;;;0.30;0.20;;;22.10;46.80;;;;;;6127183;29;20107;-55
2023/05/01 12:05:58;;;;;;;0.10;0.10;;;22.20;46.60;;;;;;6110158;29;20110;-55
2023/05/01 12:09:00;;;;;;;0.10;0.10;;;22.20;46.80;;;;;;6126749;29;20058;-54
2023/05/01 12:12:03;;;;;;;0.75;0.20;;;22.10;46.50;;;;;;6126587;29;20054;-56
2023/05/01 12:15:05;;;;;;;0.30;0.22;;;22.20;46.40;;;;;;6126848;29;20102;-53
2023/05/01 12:18:07;;;;;;;0.20;0.20;;;22.30;46.20;;;;;;6127291;29;20397;-53
2023/05/01 12:21:15;;;;;;;0.30;0.20;;;22.10;46.00;;;;;;6125220;29;20048;-51
2023/05/01 12:24:17;;;;;;;0.38;0.20;;;22.20;45.90;;;;;;6126740;29;20075;-53
2023/05/01 12:27:19;;;;;;;0.50;0.30;;;22.50;46.00;;;;;;6109772;29;20048;-53
2023/05/01 12:30:25;;;;;;;0.20;0.20;;;22.40;45.90;;;;;;6126311;29;20051;-54
2023/05/01 12:33:27;;;;;;;0.10;0.10;;;22.20;45.60;;;;;;6126942;29;20044;-53
2023/05/01 12:36:30;;;;;;;;;;;22.20;45.60;;;;;;6126868;29;20040;-54
2023/05/01 12:39:37;;;;;;;0.22;0.20;;;22.60;46.10;;;;;;6126920;29;20302;-55
2023/05/01 12:42:39;;;;;;;0.38;0.20;;;22.20;45.50;;;;;;6125159;29;20044;-53
2023/05/01 12:45:41;;;;;;;0.38;0.20;;;22.40;45.60;;;;;;6126244;29;20047;-54
2023/05/01 12:48:42;;;;;;;0.38;0.30;;;22.30;45.60;;;;;;6126185;29;20075;-55
2023/05/01 12:51:47;;;;;;;0.30;0.30;;;22.40;45.80;;;;;;6126404;29;20135;-54
2023/05/01 12:54:49;;;;;;;0.20;0.10;;;22.30;45.40;;;;;;6126139;29;20126;-55
2023/05/01 12:57:52;;;;;;;0.20;0.13;;;22.30;45.40;;;;;;6129877;29;20523;-53
2023/05/01 13:00:54;;;;;;;0.20;0.20;;;22.40;45.30;;;;;;6128990;29;20051;-53
2023/05/01 13:03:56;;;;;;;0.55;0.20;;;22.60;45.40;;;;;;6130128;29;20054;-53
2023/05/01 13:06:59;;;;;;;0.38;0.30;;;22.30;45.30;;;;;;6130029;29;20050;-52
2023/05/01 13:10:02;;;;;;;0.40;0.20;;;22.50;45.30;;;;;;6130405;29;20044;-54
2023/05/01 13:13:04;;;;;;;0.40;0.20;;;22.50;45.20;;;;;;6128738;29;20484;-54
2023/05/01 13:16:08;;;;;;;0.20;0.20;;;22.60;45.50;;;;;;6130682;29;20047;-54
2023/05/01 13:19:10;;;;;;;0.30;0.25;;;22.50;45.30;;;;;;6128707;29;20040;-54
2023/05/01 13:22:12;;;;;;;0.43;0.20;;;22.50;45.30;;;;;;6130306;29;20047;-52
2023/05/01 13:25:19;;;;;;;0.60;0.30;;;22.60;45.20;;;;;;6129738;29;20075;-54
2023/05/01 13:28:20;;;;;;;0.20;0.20;;;22.50;45.00;;;;;;6130378;29;20054;-53
2023/05/01 13:31:22;;;;;;;;;;;22.60;45.20;;;;;;6130069;29;20048;-52
2023/05/01 13:34:29;;;;;;;0.47;0.35;;;23.00;45.80;;;;;;6129572;29;19922;-54
2023/05/01 13:37:33;;;;;;;0.30;0.10;;;22.50;45.00;;;;;;6128290;29;20074;-54
2023/05/01 13:40:35;;;;;;;0.20;0.20;;;22.80;43.60;;;;;;6129793;29;20495;-54
2023/05/01 13:43:39;;;;;;;0.20;0.20;;;22.70;44.90;;;;;;6130075;29;20039;-53
2023/05/01 13:46:41;;;;;;;0.15;0.15;;;22.50;45.00;;;;;;6129223;29;20122;-53
2023/05/01 13:49:44;;;;;;;0.22;0.20;;;22.70;44.90;;;;;;6128112;29;20075;-53
2023/05/01 13:52:46;;;;;;;0.38;0.20;;;22.60;45.00;;;;;;6128117;29;20488;-53
2023/05/01 13:55:48;;;;;;;0.30;0.20;;;22.60;44.80;;;;;;6129048;29;20048;-53
2023/05/01 13:58:50;;;;;;;0.70;0.30;;;22.70;45.60;;;;;;6129557;29;20036;-54
2023/05/01 14:01:51;;;;;;;0.15;0.15;;;22.60;44.90;;;;;;6129764;29;20480;-55
2023/05/01 14:04:53;;;;;;;0.40;0.20;;;22.70;45.10;;;;;;6128872;29;20067;-54
2023/05/01 14:07:57;;;;;;;0.32;0.20;;;22.70;45.10;;;;;;6128066;29;20475;-54
2023/05/01 14:10:59;;;;;;;0.52;0.20;;;22.70;45.00;;;;;;6128900;29;20044;-54
2023/05/01 14:14:00;;;;;;;0.68;0.20;;;22.80;45.30;;;;;;6128746;29;20039;-53
2023/05/01 14:17:02;;;;;;;0.30;0.20;;;22.70;45.30;;;;;;6129068;29;20059;-54
2023/05/01 14:20:04;;;;;;;0.60;0.35;;;22.70;45.30;;;;;;6128836;29;20044;-54
2023/05/01 14:23:06;;;;;;;0.35;0.25;;;22.70;45.20;;;;;;6128602;29;20071;-54
2023/05/01 14:26:10;;;;;;;0.30;0.17;;;22.70;44.70;;;;;;6128998;29;20046;-52
2023/05/01 14:29:20;;;;;;;0.30;0.30;;;22.80;45.40;;;;;;6127371;29;20071;-53
2023/05/01 14:32:22;;;;;;;0.25;0.20;;;22.70;45.50;;;;;;6128521;29;20048;-54
2023/05/01 14:35:24;;;;;;;0.88;0.30;;;22.80;45.70;;;;;;6128163;29;20159;-54
2023/05/01 14:38:26;;;;;;;0.43;0.28;;;22.70;45.60;;;;;;6127731;29;20476;-55
2023/05/01 14:41:29;;;;;;;0.22;0.20;;;22.90;45.90;;;;;;6128360;29;20052;-53
2023/05/01 14:44:30;;;;;;;0.30;0.20;;;22.90;45.70;;;;;;6128581;29;20104;-54
2023/05/01 14:47:32;;;;;;;0.38;0.20;;;22.90;46.00;;;;;;6128241;29;20451;-54
2023/05/01 14:50:33;;;;;;;;;;;22.70;45.90;;;;;;6129179;29;20148;-54
2023/05/01 14:53:34;;;;;;;0.22;0.15;;;23.50;46.60;;;;;;6128522;29;20367;-54
2023/05/01 14:56:36;;;;;;;;;;;22.90;46.10;;;;;;6128522;29;20082;-54
2023/05/01 14:59:38;;;;;;;0.32;0.30;;;23.40;46.60;;;;;;6128080;29;19967;-54
2023/05/01 15:02:40;;;;;;;0.50;0.25;;;22.80;45.90;;;;;;6126882;29;20552;-53
2023/05/01 15:05:43;;;;;;;0.52;0.20;;;22.90;46.20;;;;;;6128011;29;20396;-52
2023/05/01 15:08:45;;;;;;;0.45;0.30;;;22.80;46.20;;;;;;6127802;29;20043;-52
2023/05/01 15:11:47;;;;;;;0.30;0.20;;;23.00;46.30;;;;;;6128001;29;20048;-53
2023/05/01 15:14:49;;;;;;;0.38;0.20;;;23.00;46.20;;;;;;6128253;29;20071;-53
2023/05/01 15:17:50;;;;;;;0.20;0.20;;;22.90;46.50;;;;;;6127648;29;20131;-54
2023/05/01 15:20:52;;;;;;;0.20;0.20;;;23.00;46.30;;;;;;6127648;29;20051;-53
2023/05/01 15:23:53;;;;;;;0.30;0.20;;;22.90;46.40;;;;;;6127682;29;20043;-52
2023/05/01 15:26:55;;;;;;;;;;;23.00;46.30;;;;;;6127956;29;20044;-54
2023/05/01 15:29:57;;;;;;;0.22;0.22;;;23.60;47.00;;;;;;6127952;29;19989;-53
2023/05/01 15:32:59;;;;;;;0.30;0.30;;;23.00;46.50;;;;;;6127640;29;20056;-53
2023/05/01 15:36:00;;;;;;;0.20;0.20;;;23.00;46.40;;;;;;6127301;29;20044;-51
2023/05/01 15:39:04;;;;;;;0.20;0.20;;;23.00;46.30;;;;;;6127189;29;20125;-54
2023/05/01 15:42:06;;;;;;;0.20;0.20;;;23.10;46.20;;;;;;6127709;29;20448;-53
2023/05/01 15:45:09;;;;;;;0.20;0.20;;;23.10;46.20;;;;;;6127873;29;20051;-52
2023/05/01 15:48:10;;;;;;;0.45;0.30;;;23.10;46.10;;;;;;6127021;29;20044;-53
2023/05/01 15:51:12;;;;;;;0.20;0.20;;;23.00;46.10;;;;;;6127194;29;20058;-53
2023/05/01 15:54:13;;;;;;;0.30;0.30;;;23.10;46.20;;;;;;6127039;29;20047;-52
2023/05/01 15:57:16;;;;;;;;;;;23.20;46.00;;;;;;6127331;29;20047;-53
2023/05/01 16:00:20;;;;;;;0.20;0.20;;;23.40;46.50;;;;;;6127240;29;20283;-53
2023/05/01 16:03:22;;;;;;;0.20;0.20;;;23.10;45.90;;;;;;6126976;29;20561;-54
2023/05/01 16:06:23;;;;;;;0.50;0.30;;;23.30;46.30;;;;;;6126815;29;20051;-53